Time;durP1;ratioP1;P1;durP2;ratioP2;P2;SDS_P1;SDS_P2;PMS_P1;PMS_P2;Temp;Humidity;BMP_temperature;BMP_pressure;BME280_temperature;BME280_humidity;BME280_pressure;Samples;Min_cycle;Max_cycle;Signal;HPM_P1;HPM_P2
2024/01/05 00:01:07;;;;;;;6.37;3.77;;;;;;;2.16;100.00;101052.03;5000068;28;20209;-72
2024/01/05 00:03:33;;;;;;;7.80;3.50;;;;;;;2.07;100.00;101019.31;4994456;28;20863;-72
2024/01/05 00:05:58;;;;;;;9.87;4.27;;;;;;;1.90;100.00;100998.81;4976010;28;20611;-72
2024/01/05 00:08:24;;;;;;;6.93;4.33;;;;;;;2.58;100.00;101094.13;4974071;28;20731;-72
2024/01/05 00:10:49;;;;;;;8.10;3.77;;;;;;;2.63;100.00;101111.25;4997600;28;20711;-72
2024/01/05 00:13:14;;;;;;;7.93;3.93;;;;;;;2.56;100.00;101099.53;4996369;28;20189;-72
2024/01/05 00:15:40;;;;;;;10.30;3.87;;;;;;;2.27;100.00;100993.66;4986870;28;20188;-72
2024/01/05 00:18:06;;;;;;;8.30;4.30;;;;;;;2.86;100.00;101097.69;4993566;28;20209;-72
2024/01/05 00:20:32;;;;;;;7.40;3.90;;;;;;;2.62;100.00;101109.56;4974386;28;20201;-72
2024/01/05 00:22:57;;;;;;;7.93;4.07;;;;;;;2.47;100.00;101074.75;4995155;28;20556;-72
2024/01/05 00:25:23;;;;;;;7.40;3.93;;;;;;;2.46;100.00;101106.66;4995051;28;20188;-72
2024/01/05 00:27:51;;;;;;;6.77;3.80;;;;;;;2.15;100.00;101071.53;4973466;28;20201;-72
2024/01/05 00:30:16;;;;;;;6.00;3.80;;;;;;;1.97;100.00;100966.41;4995625;28;20592;-72
2024/01/05 00:32:41;;;;;;;6.27;3.67;;;;;;;1.94;100.00;100998.44;4993221;28;20451;-72
2024/01/05 00:35:07;;;;;;;7.00;4.23;;;;;;;2.83;100.00;101084.72;4989751;28;20191;-72
2024/01/05 00:37:33;;;;;;;7.13;4.23;;;;;;;2.30;100.00;101024.31;4998532;28;20236;-72
2024/01/05 00:39:58;;;;;;;7.00;3.70;;;;;;;2.54;100.00;101060.94;4990709;28;20201;-72
2024/01/05 00:42:24;;;;;;;6.60;4.27;;;;;;;2.23;100.00;101018.75;4990906;28;20475;-72
2024/01/05 00:44:49;;;;;;;7.20;4.27;;;;;;;1.97;100.00;100970.88;4997188;28;20660;-72
2024/01/05 00:47:15;;;;;;;8.07;4.67;;;;;;;2.24;100.00;101020.41;4994989;28;20586;-72
2024/01/05 00:49:40;;;;;;;7.60;4.07;;;;;;;2.47;100.00;101069.44;5000126;28;20200;-72
2024/01/05 00:52:06;;;;;;;6.43;3.87;;;;;;;2.05;100.00;100976.25;4995938;28;20197;-72
2024/01/05 00:54:31;;;;;;;7.20;4.50;;;;;;;1.99;100.00;100937.13;4994410;28;20209;-72
2024/01/05 00:56:57;;;;;;;6.73;4.13;;;;;;;2.45;100.00;101020.25;4991214;28;20251;-72
2024/01/05 00:59:22;;;;;;;6.50;3.73;;;;;;;2.47;100.00;101016.50;4994729;28;20264;-72
2024/01/05 01:01:47;;;;;;;7.40;4.93;;;;;;;1.78;100.00;100905.56;4998145;28;20229;-72
2024/01/05 01:04:14;;;;;;;7.77;4.80;;;;;;;2.21;100.00;100931.53;4995797;28;20235;-72
2024/01/05 01:06:39;;;;;;;8.07;4.20;;;;;;;2.82;100.00;101004.41;4994257;28;20567;-72
2024/01/05 01:09:05;;;;;;;7.23;4.67;;;;;;;2.74;100.00;101012.25;4995619;28;20440;-72
2024/01/05 01:11:30;;;;;;;8.30;4.67;;;;;;;2.77;100.00;100979.34;4996754;28;20178;-72
2024/01/05 01:13:56;;;;;;;7.40;4.80;;;;;;;2.63;100.00;100978.84;4992544;28;20246;-72
2024/01/05 01:16:21;;;;;;;7.17;4.60;;;;;;;2.69;100.00;100995.94;4980531;28;20197;-72
2024/01/05 01:18:47;;;;;;;7.70;5.00;;;;;;;2.67;100.00;100988.16;4996004;28;20959;-72
2024/01/05 01:21:12;;;;;;;8.93;5.10;;;;;;;2.42;100.00;100949.88;4997997;28;20209;-72
2024/01/05 01:23:38;;;;;;;8.57;4.83;;;;;;;2.25;100.00;100943.50;4996778;28;20208;-73
2024/01/05 01:26:03;;;;;;;8.90;5.10;;;;;;;2.64;100.00;100961.97;4992829;28;20189;-72
2024/01/05 01:28:29;;;;;;;6.57;4.40;;;;;;;2.64;100.00;100971.72;4993239;28;20252;-72
2024/01/05 01:30:56;;;;;;;8.63;5.23;;;;;;;2.63;100.00;100959.44;4993032;28;20185;-72
2024/01/05 01:33:22;;;;;;;8.37;4.80;;;;;;;1.60;100.00;100796.19;4999897;28;20526;-72
2024/01/05 01:35:47;;;;;;;7.53;4.90;;;;;;;2.12;100.00;100891.88;4996603;28;20551;-72
2024/01/05 01:38:12;;;;;;;8.90;5.27;;;;;;;2.14;100.00;100864.31;5001359;28;20233;-72
2024/01/05 01:40:38;;;;;;;9.00;4.20;;;;;;;1.62;100.00;100787.16;4993715;28;20296;-72
2024/01/05 01:43:03;;;;;;;7.70;4.83;;;;;;;1.96;100.00;100850.94;4995075;28;20189;-72
2024/01/05 01:45:30;;;;;;;7.40;4.70;;;;;;;1.93;100.00;100869.75;4998595;28;20732;-72
2024/01/05 01:47:56;;;;;;;11.10;5.67;;;;;;;2.39;100.00;100878.69;4994317;28;20267;-72
2024/01/05 01:50:24;;;;;;;7.87;4.70;;;;;;;2.29;100.00;100864.69;4997906;28;20440;-72
2024/01/05 01:52:50;;;;;;;10.20;5.73;;;;;;;2.06;100.00;100818.38;4998868;28;20451;-72
2024/01/05 01:55:17;;;;;;;8.10;4.70;;;;;;;2.30;100.00;100839.88;4997634;28;21336;-72
2024/01/05 01:57:43;;;;;;;8.97;5.70;;;;;;;2.35;100.00;100863.25;4995809;28;20877;-72
2024/01/05 02:00:09;;;;;;;9.00;5.40;;;;;;;1.93;100.00;100779.00;4995426;28;20479;-71
2024/01/05 02:02:36;;;;;;;8.20;5.20;;;;;;;1.58;100.00;100749.56;4999883;28;20829;-71
2024/01/05 02:05:02;;;;;;;9.10;5.40;;;;;;;2.30;100.00;100862.84;5000986;28;20458;-72
2024/01/05 02:07:28;;;;;;;8.70;5.50;;;;;;;2.25;100.00;100834.16;4991290;28;20464;-71
2024/01/05 02:09:54;;;;;;;8.87;5.50;;;;;;;2.09;100.00;100804.84;4993979;28;20448;-71
2024/01/05 02:12:20;;;;;;;8.87;5.90;;;;;;;1.74;100.00;100704.03;4996953;28;20448;-73
2024/01/05 02:14:45;;;;;;;8.60;5.90;;;;;;;1.65;100.00;100694.31;4995333;28;20562;-71
2024/01/05 02:17:31;;;;;;;10.33;5.77;;;;;;;1.98;100.00;100758.22;4978926;28;20215;-71
2024/01/05 02:19:56;;;;;;;8.03;5.30;;;;;;;2.04;100.00;100755.00;4978558;28;20291;-71
2024/01/05 02:22:26;;;;;;;10.13;5.77;;;;;;;1.65;100.00;100664.38;4994222;28;20547;-71
2024/01/05 02:24:52;;;;;;;9.00;5.00;;;;;;;-0.76;100.00;100275.91;4993697;22;20281;-72
2024/01/05 02:27:17;;;;;;;9.50;6.20;;;;;;;-0.92;100.00;100230.88;4978180;28;21053;-74
2024/01/05 02:29:42;;;;;;;9.10;5.50;;;;;;;-0.21;100.00;100378.06;4994600;28;20671;-74
2024/01/05 02:32:08;;;;;;;8.50;5.23;;;;;;;-0.74;100.00;100295.03;4995615;28;20181;-71
2024/01/05 02:34:34;;;;;;;7.83;5.10;;;;;;;2.01;100.00;100747.38;4963028;28;20316;-71
2024/01/05 02:36:59;;;;;;;7.70;5.20;;;;;;;2.29;100.00;100748.22;4994140;28;20208;-71
2024/01/05 02:39:24;;;;;;;10.33;5.37;;;;;;;1.96;100.00;100710.75;4995798;28;20209;-71
2024/01/05 02:41:50;;;;;;;9.10;5.50;;;;;;;2.13;100.00;100724.19;4983916;28;20671;-72
2024/01/05 02:44:16;;;;;;;8.00;5.37;;;;;;;2.14;100.00;100766.41;4963866;28;20196;-72
2024/01/05 02:46:41;;;;;;;9.00;5.10;;;;;;;2.49;100.00;100781.53;4997617;28;20189;-72
2024/01/05 02:49:07;;;;;;;7.90;5.20;;;;;;;2.52;100.00;100776.91;4995755;28;20232;-72
2024/01/05 02:51:32;;;;;;;9.90;6.03;;;;;;;2.07;100.00;100724.78;4976514;28;20666;-71
2024/01/05 02:53:57;;;;;;;9.00;5.40;;;;;;;2.25;100.00;100741.53;4978909;28;20279;-71
2024/01/05 02:56:24;;;;;;;9.00;5.50;;;;;;;1.67;100.00;100683.59;4996573;28;20184;-71
2024/01/05 02:58:53;;;;;;;9.27;5.40;;;;;;;2.28;100.00;100719.22;4977037;28;20217;-71
2024/01/05 03:01:19;;;;;;;10.33;6.20;;;;;;;1.51;100.00;100621.59;4973256;28;20913;-73
2024/01/05 03:03:46;;;;;;;9.20;5.40;;;;;;;2.59;100.00;100793.91;4977173;28;20544;-72
2024/01/05 03:06:14;;;;;;;9.17;5.07;;;;;;;2.37;100.00;100779.22;4982248;28;20189;-73
2024/01/05 03:08:39;;;;;;;9.37;5.83;;;;;;;2.39;100.00;100748.16;4999450;28;20547;-72
2024/01/05 03:11:05;;;;;;;10.73;6.27;;;;;;;2.04;100.00;100726.72;4991733;28;20433;-71
2024/01/05 03:13:30;;;;;;;10.03;6.27;;;;;;;2.59;100.00;100780.66;4999838;28;20182;-72
2024/01/05 03:15:56;;;;;;;11.80;6.50;;;;;;;2.22;100.00;100734.72;4973827;28;20259;-71
2024/01/05 03:18:21;;;;;;;10.50;6.13;;;;;;;2.34;100.00;100753.88;4978582;28;20219;-71
2024/01/05 03:20:47;;;;;;;9.10;5.60;;;;;;;2.25;100.00;100723.00;4995443;28;20201;-72
2024/01/05 03:23:12;;;;;;;9.93;6.10;;;;;;;2.01;100.00;100670.63;4992902;28;20192;-73
2024/01/05 03:25:38;;;;;;;10.67;6.53;;;;;;;2.49;100.00;100723.28;5000525;28;20197;-73
2024/01/05 03:28:03;;;;;;;12.00;6.43;;;;;;;2.09;100.00;100628.41;4993647;28;20220;-73
2024/01/05 03:30:29;;;;;;;10.10;6.57;;;;;;;1.85;100.00;100626.28;4993326;28;20204;-73
2024/01/05 03:32:54;;;;;;;10.50;6.73;;;;;;;1.84;100.00;100600.00;4984472;28;20185;-73
2024/01/05 03:35:19;;;;;;;11.90;7.23;;;;;;;2.21;100.00;100637.78;4983461;28;20214;-73
2024/01/05 03:37:45;;;;;;;12.97;7.77;;;;;;;2.20;100.00;100696.19;4998768;28;20219;-73
2024/01/05 03:40:10;;;;;;;11.90;7.27;;;;;;;2.64;100.00;100683.91;4991551;28;20182;-74
2024/01/05 03:42:36;;;;;;;10.33;6.80;;;;;;;2.15;100.00;100678.09;4987281;28;20563;-74
2024/01/05 03:45:02;;;;;;;12.20;7.07;;;;;;;1.56;100.00;100545.34;4968241;28;20552;-73
2024/01/05 03:47:27;;;;;;;13.57;7.53;;;;;;;1.35;100.00;100479.50;4996610;28;20212;-73
2024/01/05 03:49:52;;;;;;;14.50;7.07;;;;;;;2.48;100.00;100618.34;4999500;28;20188;-73
2024/01/05 03:52:18;;;;;;;13.57;7.53;;;;;;;2.02;100.00;100574.41;4998527;28;20178;-73
2024/01/05 03:54:43;;;;;;;12.33;7.53;;;;;;;2.59;100.00;100651.72;4990947;28;20624;-73
2024/01/05 03:57:09;;;;;;;11.50;7.60;;;;;;;2.46;100.00;100649.47;4992886;28;20205;-73
2024/01/05 03:59:34;;;;;;;14.27;8.23;;;;;;;2.24;100.00;100613.66;4982784;28;20189;-73
2024/01/05 04:02:00;;;;;;;15.23;8.30;;;;;;;1.73;100.00;100506.66;4995737;28;20205;-73
2024/01/05 04:04:26;;;;;;;11.40;7.07;;;;;;;2.78;100.00;100623.41;4983743;28;20196;-74
2024/01/05 04:06:51;;;;;;;12.10;8.20;;;;;;;1.98;100.00;100576.53;5001628;28;20440;-75
2024/01/05 04:09:17;;;;;;;13.67;8.13;;;;;;;2.36;100.00;100605.50;4975367;28;20908;-74
2024/01/05 04:11:43;;;;;;;12.10;7.40;;;;;;;2.32;100.00;100544.13;4994769;28;20187;-74
2024/01/05 04:14:08;;;;;;;13.03;7.80;;;;;;;1.68;100.00;100479.88;4997820;28;20449;-74
2024/01/05 04:16:34;;;;;;;13.83;7.77;;;;;;;2.17;100.00;100557.06;4994372;28;20224;-74
2024/01/05 04:19:00;;;;;;;13.27;7.43;;;;;;;2.12;100.00;100561.97;5002274;28;20263;-74
2024/01/05 04:21:25;;;;;;;16.07;8.07;;;;;;;2.12;100.00;100518.81;4985008;28;20464;-75
2024/01/05 04:23:55;;;;;;;11.30;7.97;;;;;;;1.70;100.00;100453.25;4981421;28;20248;-74
2024/01/05 04:26:21;;;;;;;12.90;7.43;;;;;;;2.34;100.00;100509.53;4997012;28;20250;-74
2024/01/05 04:28:46;;;;;;;12.53;8.03;;;;;;;1.38;100.00;100393.81;4978567;28;20985;-74
2024/01/05 04:31:11;;;;;;;14.10;7.50;;;;;;;2.28;100.00;100523.38;4980480;28;21025;-74
2024/01/05 04:33:37;;;;;;;12.83;7.23;;;;;;;1.83;100.00;100447.63;5000884;28;20567;-74
2024/01/05 04:36:03;;;;;;;11.93;7.60;;;;;;;2.24;100.00;100521.03;5007054;28;20189;-74
2024/01/05 04:38:29;;;;;;;13.97;7.50;;;;;;;2.49;100.00;100532.69;4984223;28;20245;-74
2024/01/05 04:40:55;;;;;;;12.70;7.20;;;;;;;2.53;100.00;100527.91;4979361;28;20539;-75
2024/01/05 04:43:20;;;;;;;15.77;7.97;;;;;;;2.39;100.00;100480.81;4998117;28;20611;-74
2024/01/05 04:45:46;;;;;;;14.43;8.30;;;;;;;2.51;100.00;100489.31;4993103;28;20203;-74
2024/01/05 04:48:12;;;;;;;14.73;8.27;;;;;;;2.40;100.00;100480.66;5001512;28;20201;-74
2024/01/05 04:50:38;;;;;;;12.30;7.60;;;;;;;1.70;100.00;100385.34;4999454;28;20679;-74
2024/01/05 04:53:03;;;;;;;13.60;7.90;;;;;;;1.89;100.00;100389.66;4984442;28;20448;-75
2024/01/05 04:55:29;;;;;;;16.37;8.30;;;;;;;2.68;100.00;100478.66;4985375;28;20185;-74
2024/01/05 04:57:54;;;;;;;15.40;8.80;;;;;;;1.81;100.00;100389.56;4981501;28;20275;-74
2024/01/05 05:00:20;;;;;;;13.13;7.80;;;;;;;2.45;100.00;100459.81;4981507;28;20193;-74
2024/01/05 05:02:45;;;;;;;12.93;8.10;;;;;;;2.04;100.00;100427.78;4994527;28;20252;-74
2024/01/05 05:05:11;;;;;;;12.57;7.63;;;;;;;1.56;100.00;100303.94;4981360;28;20272;-74
2024/01/05 05:07:36;;;;;;;13.70;7.63;;;;;;;1.76;100.00;100310.69;5001706;28;20209;-74
2024/01/05 05:10:02;;;;;;;14.10;8.10;;;;;;;2.37;100.00;100425.38;4995129;28;20185;-74
2024/01/05 05:12:28;;;;;;;13.40;8.43;;;;;;;2.04;100.00;100359.00;4998718;28;20263;-74
2024/01/05 05:14:54;;;;;;;14.17;7.73;;;;;;;2.18;100.00;100388.53;5000858;28;20196;-74
2024/01/05 05:17:19;;;;;;;14.53;8.27;;;;;;;2.14;100.00;100381.88;4978377;28;20217;-73
2024/01/05 05:19:45;;;;;;;14.90;8.23;;;;;;;2.21;100.00;100390.88;4984653;28;20826;-73
2024/01/05 05:22:10;;;;;;;14.40;8.43;;;;;;;2.59;100.00;100442.53;4996632;28;20869;-73
2024/01/05 05:24:36;;;;;;;12.50;8.17;;;;;;;2.25;100.00;100402.78;4998630;28;20288;-73
2024/01/05 05:27:02;;;;;;;13.67;8.87;;;;;;;2.46;100.00;100424.44;4998302;28;20216;-73
2024/01/05 05:29:28;;;;;;;15.53;8.37;;;;;;;2.29;100.00;100380.34;4998515;28;20445;-73
2024/01/05 05:31:53;;;;;;;13.97;8.23;;;;;;;2.26;100.00;100402.66;4974772;28;20583;-73
2024/01/05 05:34:19;;;;;;;13.67;8.83;;;;;;;2.15;100.00;100386.19;4974886;28;20188;-74
2024/01/05 05:36:44;;;;;;;12.50;8.00;;;;;;;2.17;100.00;100397.44;5000055;28;20311;-73
2024/01/05 05:39:10;;;;;;;13.63;7.87;;;;;;;2.20;100.00;100368.88;4985883;28;20671;-73
2024/01/05 05:41:36;;;;;;;13.90;7.87;;;;;;;2.69;100.00;100415.94;4986378;28;20243;-73
2024/01/05 05:44:02;;;;;;;14.20;8.73;;;;;;;2.74;100.00;100432.19;5002524;28;20472;-73
2024/01/05 05:46:27;;;;;;;16.43;9.50;;;;;;;2.68;100.00;100415.13;4979574;28;20799;-73
2024/01/05 05:48:52;;;;;;;16.20;9.53;;;;;;;2.27;100.00;100374.34;4994027;28;20206;-73
2024/01/05 05:51:18;;;;;;;13.30;8.40;;;;;;;2.03;100.00;100352.06;4975462;28;20737;-73
2024/01/05 05:53:43;;;;;;;13.50;8.90;;;;;;;2.50;100.00;100424.97;4995198;28;20193;-73
2024/01/05 05:56:09;;;;;;;13.93;9.30;;;;;;;2.73;100.00;100430.53;4982886;28;20184;-73
2024/01/05 05:58:34;;;;;;;12.70;8.90;;;;;;;2.07;100.00;100331.41;4978611;28;20587;-74
2024/01/05 06:01:00;;;;;;;13.77;8.97;;;;;;;2.39;100.00;100361.69;4978243;28;20229;-73
2024/01/05 06:03:25;;;;;;;10.93;7.60;;;;;;;2.20;100.00;100320.41;4997415;28;20193;-73
2024/01/05 06:05:51;;;;;;;14.37;9.27;;;;;;;2.47;100.00;100367.84;4994212;28;20390;-73
2024/01/05 06:08:16;;;;;;;14.23;8.80;;;;;;;2.60;100.00;100379.81;4982712;28;21019;-73
2024/01/05 06:10:42;;;;;;;15.33;10.07;;;;;;;2.56;100.00;100402.31;4977714;28;20186;-74
2024/01/05 06:13:08;;;;;;;12.03;8.27;;;;;;;2.74;100.00;100411.00;4993432;28;20426;-73
2024/01/05 06:15:33;;;;;;;13.70;9.17;;;;;;;2.25;100.00;100360.44;4998111;28;20444;-75
2024/01/05 06:17:59;;;;;;;11.57;8.27;;;;;;;2.52;100.00;100364.75;4993540;28;20205;-74
2024/01/05 06:20:25;;;;;;;13.47;8.67;;;;;;;2.69;100.00;100381.50;4982292;28;20193;-74
2024/01/05 06:22:50;;;;;;;13.00;8.40;;;;;;;2.69;100.00;100413.28;4978528;28;20557;-74
2024/01/05 06:25:16;;;;;;;14.27;9.10;;;;;;;1.66;100.00;100264.19;5003042;28;20445;-73
2024/01/05 06:27:41;;;;;;;12.63;8.63;;;;;;;2.39;100.00;100338.69;4977740;28;20768;-73
2024/01/05 06:30:09;;;;;;;12.13;8.60;;;;;;;2.21;100.00;100280.56;4999813;28;20196;-73
2024/01/05 06:32:35;;;;;;;12.40;8.00;;;;;;;2.46;100.00;100352.16;4995384;28;20197;-75
2024/01/05 06:35:01;;;;;;;13.17;9.20;;;;;;;2.85;100.00;100415.19;4980031;28;20439;-74
2024/01/05 06:37:29;;;;;;;11.90;8.43;;;;;;;2.87;100.00;100403.47;4985467;28;20470;-74
2024/01/05 06:39:54;;;;;;;13.83;7.87;;;;;;;2.66;100.00;100385.34;4999952;28;20193;-74
2024/01/05 06:42:19;;;;;;;10.57;7.20;;;;;;;2.52;100.00;100375.34;5000389;28;20483;-74
2024/01/05 06:44:45;;;;;;;11.97;7.33;;;;;;;2.29;100.00;100316.00;5001708;28;20193;-74
2024/01/05 06:47:10;;;;;;;10.73;7.53;;;;;;;2.65;100.00;100351.06;4995625;28;20201;-74
2024/01/05 06:49:36;;;;;;;9.80;6.20;;;;;;;2.86;100.00;100396.47;4997087;28;20186;-73
2024/01/05 06:52:01;;;;;;;9.53;6.33;;;;;;;2.30;100.00;100297.28;4979663;28;20178;-74
2024/01/05 06:54:27;;;;;;;11.10;6.90;;;;;;;2.83;100.00;100386.22;4997313;28;20502;-74
2024/01/05 06:56:52;;;;;;;11.13;6.67;;;;;;;2.09;100.00;100251.91;5005343;28;20205;-74
2024/01/05 06:59:18;;;;;;;9.57;5.80;;;;;;;2.97;100.00;100360.09;4981669;28;20189;-73
2024/01/05 07:01:43;;;;;;;9.93;6.77;;;;;;;1.81;100.00;100202.63;4981255;28;20258;-74
2024/01/05 07:04:09;;;;;;;8.73;5.60;;;;;;;2.06;100.00;100255.69;4983248;28;20189;-73
2024/01/05 07:06:39;;;;;;;9.37;6.57;;;;;;;2.68;100.00;100378.03;4989560;28;20192;-73
2024/01/05 07:09:05;;;;;;;9.13;6.53;;;;;;;2.72;100.00;100397.94;4974268;28;20290;-73
2024/01/05 07:11:30;;;;;;;8.40;5.50;;;;;;;2.79;100.00;100336.38;4995135;28;20444;-73
2024/01/05 07:13:55;;;;;;;8.70;5.50;;;;;;;2.73;100.00;100340.50;4979329;28;20181;-74
2024/01/05 07:16:22;;;;;;;7.80;5.03;;;;;;;2.56;100.00;100325.53;5000629;28;20185;-74
2024/01/05 07:18:48;;;;;;;9.03;5.10;;;;;;;2.76;100.00;100371.13;4998447;28;20207;-73
2024/01/05 07:21:15;;;;;;;8.23;5.23;;;;;;;1.87;100.00;100218.88;4981534;28;20455;-73
2024/01/05 07:23:40;;;;;;;8.10;5.10;;;;;;;2.89;100.00;100367.06;4996115;28;20436;-73
2024/01/05 07:26:06;;;;;;;7.53;4.90;;;;;;;2.62;100.00;100331.03;4997196;28;20587;-73
2024/01/05 07:28:31;;;;;;;8.77;5.07;;;;;;;2.72;100.00;100339.69;5000512;28;20572;-73
2024/01/05 07:30:56;;;;;;;10.10;5.83;;;;;;;2.87;100.00;100365.56;4991145;28;20184;-73
2024/01/05 07:33:22;;;;;;;8.50;5.30;;;;;;;2.88;100.00;100362.72;4980131;28;20181;-73
2024/01/05 07:35:48;;;;;;;8.67;5.10;;;;;;;2.68;100.00;100319.78;4978962;28;20194;-73
2024/01/05 07:38:14;;;;;;;8.37;5.90;;;;;;;2.70;100.00;100331.06;5001277;28;20200;-73
2024/01/05 07:40:39;;;;;;;8.50;5.40;;;;;;;2.41;100.00;100283.78;4979046;28;20989;-73
2024/01/05 07:43:05;;;;;;;9.23;5.53;;;;;;;2.44;100.00;100269.41;4980789;28;20456;-73
2024/01/05 07:45:30;;;;;;;7.90;5.07;;;;;;;2.62;100.00;100309.00;4996944;28;20181;-72
2024/01/05 07:47:57;;;;;;;8.07;5.40;;;;;;;2.27;100.00;100260.56;4991599;28;20223;-73
2024/01/05 07:50:24;;;;;;;7.43;5.30;;;;;;;2.24;100.00;100261.72;4984074;28;20177;-73
2024/01/05 07:52:49;;;;;;;7.67;5.00;;;;;;;2.43;100.00;100284.47;4982149;28;21045;-74
2024/01/05 07:55:15;;;;;;;9.73;5.80;;;;;;;2.67;100.00;100296.94;4980282;28;20479;-73
2024/01/05 07:57:40;;;;;;;9.93;5.80;;;;;;;2.47;100.00;100296.38;4994723;28;20622;-74
2024/01/05 08:00:06;;;;;;;9.33;5.97;;;;;;;2.96;100.00;100361.94;4997865;28;20177;-74
2024/01/05 08:02:32;;;;;;;9.63;5.83;;;;;;;2.07;100.00;100193.84;5000738;28;20232;-73
2024/01/05 08:04:58;;;;;;;10.03;6.20;;;;;;;2.89;100.00;100337.91;4975708;28;20945;-73
2024/01/05 08:07:23;;;;;;;11.53;6.33;;;;;;;3.20;100.00;100360.34;4981485;28;20513;-72
2024/01/05 08:09:52;;;;;;;9.47;5.97;;;;;;;3.01;100.00;100353.47;4983188;28;20193;-73
2024/01/05 08:12:20;;;;;;;11.40;6.80;;;;;;;2.54;100.00;100277.19;4978917;28;20198;-73
2024/01/05 08:14:45;;;;;;;10.67;6.83;;;;;;;2.90;100.00;100347.50;5001579;28;20539;-73
2024/01/05 08:17:11;;;;;;;11.00;6.80;;;;;;;2.93;100.00;100315.41;4994275;28;20524;-73
2024/01/05 08:19:36;;;;;;;11.20;7.70;;;;;;;3.10;100.00;100365.78;4998963;28;20246;-73
2024/01/05 08:22:01;;;;;;;9.67;6.77;;;;;;;2.34;100.00;100266.88;4997673;28;20201;-73
2024/01/05 08:24:27;;;;;;;10.13;7.07;;;;;;;2.94;100.00;100327.63;5000664;28;20219;-73
2024/01/05 08:26:54;;;;;;;9.53;6.50;;;;;;;2.76;100.00;100289.84;4989059;28;20222;-73
2024/01/05 08:29:21;;;;;;;8.90;6.33;;;;;;;2.93;100.00;100301.31;4990355;28;20208;-73
2024/01/05 08:31:48;;;;;;;9.00;6.10;;;;;;;2.90;100.00;100288.41;4974888;28;20559;-73
2024/01/05 08:34:13;;;;;;;11.53;6.73;;;;;;;3.09;100.00;100334.97;4981630;28;20508;-73
2024/01/05 08:36:39;;;;;;;10.47;6.60;;;;;;;2.74;100.00;100275.13;4991589;28;20528;-73
2024/01/05 08:39:05;;;;;;;9.33;6.87;;;;;;;2.68;100.00;100268.66;4980829;28;20212;-73
2024/01/05 08:41:31;;;;;;;10.70;6.83;;;;;;;2.17;100.00;100146.94;4977091;28;20999;-73
2024/01/05 08:43:57;;;;;;;10.97;7.73;;;;;;;3.28;100.00;100337.31;4993680;28;20190;-73
2024/01/05 08:46:22;;;;;;;8.93;6.50;;;;;;;3.18;100.00;100328.69;4993421;28;20815;-73
2024/01/05 08:48:48;;;;;;;9.87;6.90;;;;;;;2.67;100.00;100228.09;5002658;28;20695;-73
2024/01/05 08:51:14;;;;;;;11.67;6.90;;;;;;;3.28;100.00;100349.75;4980333;28;20178;-73
2024/01/05 08:53:40;;;;;;;9.60;6.83;;;;;;;3.32;100.00;100338.63;4985559;28;20277;-73
2024/01/05 08:56:08;;;;;;;9.90;6.53;;;;;;;2.43;100.00;100190.97;5000881;28;20208;-73
2024/01/05 08:58:33;;;;;;;9.77;6.50;;;;;;;2.54;100.00;100213.66;4998344;28;20881;-73
2024/01/05 09:00:59;;;;;;;9.60;6.50;;;;;;;3.00;100.00;100283.78;5003131;28;20468;-74
2024/01/05 09:03:24;;;;;;;9.80;6.07;;;;;;;3.08;100.00;100288.25;4994513;28;20557;-73
2024/01/05 09:05:50;;;;;;;9.80;6.47;;;;;;;2.66;100.00;100234.41;4980429;28;20196;-74
2024/01/05 09:08:16;;;;;;;10.20;7.00;;;;;;;2.48;100.00;100189.50;5003002;28;20665;-73
2024/01/05 09:10:41;;;;;;;13.00;7.07;;;;;;;2.53;100.00;100196.97;4979999;28;20520;-73
2024/01/05 09:13:07;;;;;;;9.73;6.33;;;;;;;3.22;100.00;100314.13;4998301;28;20195;-73
2024/01/05 09:15:34;;;;;;;9.73;6.70;;;;;;;3.16;100.00;100309.47;4998518;28;20245;-73
2024/01/05 09:17:59;;;;;;;9.07;6.60;;;;;;;2.98;100.00;100271.69;4999986;28;20240;-73
2024/01/05 09:20:25;;;;;;;11.17;7.30;;;;;;;3.27;100.00;100305.66;4981350;28;20444;-73
2024/01/05 09:22:50;;;;;;;11.90;7.50;;;;;;;3.34;100.00;100304.03;5003129;28;20193;-73
2024/01/05 09:25:16;;;;;;;11.13;7.30;;;;;;;2.84;100.00;100266.03;4993991;28;20231;-73
2024/01/05 09:27:42;;;;;;;9.70;6.97;;;;;;;3.23;100.00;100285.78;4996322;28;20584;-73
2024/01/05 09:30:07;;;;;;;11.60;7.20;;;;;;;2.45;100.00;100149.28;4984572;28;20448;-73
2024/01/05 09:32:33;;;;;;;9.40;6.60;;;;;;;3.35;100.00;100282.66;4977885;28;20198;-72
2024/01/05 09:34:58;;;;;;;9.10;6.27;;;;;;;3.50;100.00;100292.59;5001342;28;20200;-73
2024/01/05 09:37:24;;;;;;;9.73;6.23;;;;;;;2.77;100.00;100203.28;4996098;28;20232;-73
2024/01/05 09:39:49;;;;;;;9.47;6.57;;;;;;;2.97;100.00;100227.66;4997717;28;20280;-73
2024/01/05 09:42:15;;;;;;;8.23;5.87;;;;;;;3.13;100.00;100244.38;4994022;28;20220;-72
2024/01/05 09:44:42;;;;;;;11.37;6.57;;;;;;;3.21;100.00;100246.22;4980482;28;20189;-73
2024/01/05 09:47:08;;;;;;;11.23;6.90;;;;;;;3.30;100.00;100276.22;4997996;28;20204;-73
2024/01/05 09:49:37;;;;;;;8.13;5.73;;;;;;;3.39;100.00;100299.91;4989446;28;20494;-72
2024/01/05 09:52:02;;;;;;;9.60;6.93;;;;;;;3.31;100.00;100272.56;4975615;28;20483;-73
2024/01/05 09:54:28;;;;;;;10.63;6.60;;;;;;;3.27;100.00;100266.75;4979912;28;20439;-74
2024/01/05 09:56:54;;;;;;;9.97;7.10;;;;;;;3.48;100.00;100297.25;4985965;28;20284;-73
2024/01/05 09:59:21;;;;;;;8.90;6.57;;;;;;;3.49;100.00;100297.06;4994662;28;20481;-73
2024/01/05 10:01:49;;;;;;;9.70;6.63;;;;;;;3.17;100.00;100229.78;4994840;28;20530;-73
2024/01/05 10:04:15;;;;;;;9.60;6.13;;;;;;;3.14;100.00;100239.91;4982264;28;20495;-73
2024/01/05 10:06:41;;;;;;;9.30;6.67;;;;;;;3.12;100.00;100221.50;4980531;28;20883;-73
2024/01/05 10:09:06;;;;;;;9.40;6.70;;;;;;;3.08;100.00;100201.66;4995412;28;20213;-73
2024/01/05 10:11:41;;;;;;;8.57;6.00;;;;;;;3.52;100.00;100282.66;4999386;28;20560;-73
2024/01/05 10:14:11;;;;;;;9.30;6.03;;;;;;;3.43;100.00;100260.63;4998233;28;20185;-73
2024/01/05 10:16:39;;;;;;;9.87;5.80;;;;;;;3.18;100.00;100233.28;5001891;28;20442;-73
2024/01/05 10:19:18;;;;;;;11.33;7.00;;;;;;;3.66;100.00;100266.06;4980560;28;20892;-73
2024/01/05 10:21:45;;;;;;;10.90;6.67;;;;;;;2.88;100.00;100156.09;4978088;28;20463;-73
2024/01/05 10:24:29;;;;;;;10.57;6.60;;;;;;;2.82;100.00;100129.47;4994297;28;20451;-73
2024/01/05 10:27:04;;;;;;;8.47;6.13;;;;;;;3.49;100.00;100244.03;4973999;28;20444;-73
2024/01/05 10:29:30;;;;;;;9.10;6.30;;;;;;;3.48;100.00;100239.75;4978649;28;20476;-73
2024/01/05 10:32:11;;;;;;;8.03;5.83;;;;;;;3.65;100.00;100276.84;4980792;28;20452;-72
2024/01/05 10:34:38;;;;;;;8.77;5.60;;;;;;;2.61;100.00;100114.06;4998788;28;20493;-73
2024/01/05 10:37:05;;;;;;;7.40;5.20;;;;;;;3.42;100.00;100237.75;4982313;28;20465;-73
2024/01/05 10:39:31;;;;;;;9.67;5.57;;;;;;;3.55;100.00;100284.97;5000469;28;20862;-72
2024/01/05 10:42:29;;;;;;;7.90;5.40;;;;;;;3.75;100.00;100261.56;4971937;28;20495;-73
2024/01/05 10:44:56;;;;;;;9.53;5.50;;;;;;;3.73;100.00;100276.81;4941302;28;20202;-73
2024/01/05 10:47:31;;;;;;;7.67;4.97;;;;;;;3.57;100.00;100240.56;5004071;28;20986;-73
2024/01/05 10:49:57;;;;;;;8.60;5.63;;;;;;;3.55;100.00;100261.94;4994273;28;20757;-73
2024/01/05 10:52:25;;;;;;;7.67;5.20;;;;;;;3.31;100.00;100219.53;4998640;28;20447;-73
2024/01/05 10:54:52;;;;;;;8.30;5.27;;;;;;;3.70;100.00;100272.69;4995625;28;20264;-73
2024/01/05 10:57:19;;;;;;;7.83;5.30;;;;;;;3.67;100.00;100250.97;4980038;28;20478;-73
2024/01/05 10:59:49;;;;;;;9.30;6.20;;;;;;;3.43;100.00;100247.34;4975558;28;20786;-72
2024/01/05 11:02:44;;;;;;;8.80;5.60;;;;;;;3.29;100.00;100174.63;4974451;28;20465;-73
2024/01/05 11:05:11;;;;;;;9.33;6.07;;;;;;;3.43;100.00;100247.34;4991622;28;20445;-73
2024/01/05 11:07:38;;;;;;;9.80;5.73;;;;;;;3.57;100.00;100244.03;4992932;28;20864;-73
2024/01/05 11:10:18;;;;;;;8.00;5.07;;;;;;;3.87;100.00;100260.22;4984813;28;20432;-74
2024/01/05 11:13:21;;;;;;;7.93;5.20;;;;;;;3.88;100.00;100258.38;4987134;28;20499;-74
2024/01/05 11:16:17;;;;;;;7.97;4.70;;;;;;;3.79;100.00;100252.28;4996498;28;20435;-73
2024/01/05 11:19:11;;;;;;;7.90;5.17;;;;;;;3.49;100.00;100225.47;4995260;28;20460;-74